Dauntless Aviation
Airports North America Canada
CJS4

Moose Jaw Municipal Airport

Moose Jaw, CANADA

Airport Info
Suggest Updated Information for this Airport

Location

Latitude / Longitude: 50°26'3"N / 105°23'13"W
  50°26.052'N / 105°23.22'W
  50.4342 / -105.3870

Instrument Procedures

  CAC: Aerodrome Chart
  Airport Diagram

IAPs (Instrument Approach Procedures)

  CFS: Aerodrome Information
Satellite photo at:
Airport distance calculator
From:
Weather Reports

METAR

CYMJ
9.0nm S
CYMJ 222100Z 10012KT 15SM BKN170 BKN250 06/M03 A2978 RMK AC6CI2 SLP109
CZMJ
9.2nm SW
CZMJ 222100Z AUTO 11013KT 07/M04 RMK AO1 SOG 01 6031 SLP111 T00651043
CYQR
27.5nm E
CYQR 222100Z 10010KT 15SM FEW110 SCT210 OVC280 06/M04 A2980 RMK AC1CS3CI5 AC TR SLP120
CXBK
29.9nm E
CXBK 222100Z AUTO 11008KT 07/M06 RMK AO1 SLP104 T00681057 57023
CWDJ
30.8nm E
CWDJ 222100Z AUTO 11009KT 06/M05 RMK AO1 SLP116 T00611050 58023

TAF

CYMJ
9.0nm S
TAF CYMJ 221735Z 2218/2306 10005KT 6SM BR FEW002 SCT270 BECMG 2218/2220 11010KT P6SM NSW BKN270 FM222100 11012KT P6SM SCT080 BKN160 FM230300 09008KT P6SM BKN050 BKN100 RMK NXT FCST BY 230000Z
CYQR
27.5nm E
TAF CYQR 221738Z 2218/2318 12010KT P6SM FEW080 FEW250 FM222200 11010KT P6SM BKN070 OVC150 FM230600 08006KT P6SM SCT060 BKN180 FM230900 VRB03KT P6SM FEW005 BKN200 PROB30 2309/2316 1SM BR BKN005 FM231600 VRB03KT P6SM BKN220 RMK NXT FCST BY 230000Z
Safelog

 

Dauntless Aviation

© 2007-2019 Dauntless Aviation, all rights reserved
Information provided via PilotNav comes from a variety of official and unofficial data sources. As errors are possible, do not use PilotNav for primary flight planning purposes. Verify any information that you receive via PilotNav with current and canonical charts and other official documents. The material in this database is subject to database copyrights held by Dauntless Aviation and may not be copied without the express permission of Dauntless Aviation - licenses for use of part of all of this data are available for purchase; enquire via the Dauntless Aviation helpdesk. A number of mechanisms and markers exist in the database to protect against and identify infringement / copyright. Automated queries against this website are stictly prohibited, and all activity is logged and analyzed.